Observations for GROSSETO IT-AFB, Italy (LIRS)

LIRS 191955Z 12004KT CAVOK 16/13 Q1017  
LIRS 191955Z 12004KT CAVOK 16/13 Q1017 RMK FEW FEW200 VIS MIN 9999 WIND THR03 11005KT WIND THR21 13004KT BLU
LIRS 191855Z 12004KT CAVOK 17/14 Q1017  
LIRS 191855Z 12004KT CAVOK 17/14 Q1017 RMK FEW FEW200 VIS MIN 9999 WIND THR03 11004KT WIND THR21 15004KT BLU
LIRS 191755Z 12004KT 9999 FEW060 17/13 Q1017
LIRS 191755Z 12004KT 9999 FEW060 17/13 Q1017 RMK FEW VIS MIN 9999 WIND THR03 13003KT WIND THR21 14003KT BLU
LIRS 191655Z 16006KT 9999 SCT060 19/13 Q1016
LIRS 191655Z 16006KT 9999 SCT060 19/13 Q1016 RMK SCT VIS MIN 9999 WIND THR03 15006KT WIND THR21 16005KT BLU
LIRS 191555Z 16008KT 9999 SCT045 21/14 Q1016
LIRS 191555Z 16008KT 9999 SCT045 21/14 Q1016 RMK SCT VIS MIN 9999 BLU
LIRS 191455Z 16010KT 9999 BKN040 21/14 Q1016
LIRS 191455Z 16010KT 9999 BKN040 21/14 Q1016 RMK BKN VIS MIN 9999 WIND THR03 17008KT WIND THR21 18009KT BLU
LIRS 191355Z 17009KT 9999 SCT030 23/14 Q1016
LIRS 191355Z 17009KT 9999 SCT030 23/14 Q1016 RMK SCT VIS MIN 9999 WIND THR03 16008KT WIND THR21 18009KT BLU
LIRS 191255Z 17009KT 9999 BKN030 23/14 Q1016
LIRS 191255Z 17009KT 9999 BKN030 23/14 Q1016 RMK BKN VIS MIN 9999 WIND THR03 16009KT WIND THR21 17008KT BLU
LIRS 191155Z 16009KT 9999 BKN030 23/15 Q1017
LIRS 191155Z 16009KT 9999 BKN030 23/15 Q1017 RMK BKN VIS MIN 9999 WIND THR03 16008KT WIND THR21 18010KT BLU
LIRS 191055Z 15012KT 9999 FEW020 SCT030 23/15 Q1017 
LIRS 191055Z 15012KT 9999 FEW020 SCT030 23/15 Q1017 RMK BKN VIS MIN 9999 WIND THR03 16009KT WIND THR21 16009KT BLU
LIRS 190955Z 15010KT 9999 FEW015 SCT025 22/16 Q1017 
LIRS 190955Z 15010KT 9999 FEW015 SCT025 22/16 Q1017 RMK BKN VIS MIN 9999 WIND THR03 15010KT WIND THR21 16010KT BLU
LIRS 190855Z 15011KT 9999 SCT018 21/16 Q1017
LIRS 190855Z 15011KT 9999 SCT018 21/16 Q1017 RMK SCT VIS MIN 9999 WIND THR03 15011KT WIND THR21 16007KT BLU
LIRS 190755Z 12005KT 9999 FEW018 19/16 Q1017
LIRS 190755Z 12005KT 9999 FEW018 19/16 Q1017 RMK SCT VIS MIN 9999 WIND THR03 14007KT WIND THR21 13004KT BLU
LIRS 190655Z 06003KT 9999 FEW020 15/13 Q1017
LIRS 190655Z 06003KT 9999 FEW020 15/13 Q1017 RMK SCT VIS MIN 9999 WIND THR03 09004KT WIND THR21 09003KT BLU
LIRS 190555Z 02006KT 9999 SCT030 12/10 Q1016
LIRS 190555Z 02006KT 9999 SCT030 12/10 Q1016 RMK SCT VIS MIN 9999 WIND THR03 03006KT WIND THR21 01005KT BLU
LIRS 190455Z 09004KT CAVOK 14/12 Q1016  
LIRS 190455Z 09004KT CAVOK 14/12 Q1016 RMK BKN SCT100 VIS MIN 9999 WIND THR03 11004KT WIND THR21 09004KT BLU
LIRS 190355Z 09004KT CAVOK 13/11 Q1016  
LIRS 190355Z 09004KT CAVOK 13/11 Q1016 RMK BKN BKN100 VIS MIN 9999 WIND THR03 10004KT WIND THR21 07003KT BLU
LIRS 190255Z 07003KT 9999 FEW040 13/11 Q1016
LIRS 190255Z 07003KT 9999 FEW040 13/11 Q1016 RMK SCT SCT200 VIS MIN 9999 WIND THR03 08003KT WIND THR21 08004KT BLU
LIRS 190155Z 10005KT 9999 FEW030 13/11 Q1017
LIRS 190155Z 10005KT 9999 FEW030 13/11 Q1017 RMK FEW VIS MIN 9999 WIND THR03 10006KT WIND THR21 10004KT BLU
LIRS 190055Z 06003KT 9999 FEW025 13/11 Q1017
LIRS 190055Z 06003KT 9999 FEW025 13/11 Q1017 RMK FEW VIS MIN 9999 WIND THR03 08004KT WIND THR21 07003KT BLU
LIRS 182255Z 10005KT 9999 FEW040 15/13 Q1017
LIRS 182255Z 10005KT 9999 FEW040 15/13 Q1017 RMK FEW VIS MIN 9999 WIND THR03 11005KT WIND THR21 11004KT BLU
LIRS 182155Z 10005KT 9999 FEW030 15/14 Q1017
LIRS 182155Z 10005KT 9999 FEW030 15/14 Q1017 RMK SCT VIS MIN 9999 WIND THR03 10006KT WIND THR21 10004KT BLU
LIRS 182055Z 09005KT 9999 SCT040 15/14 Q1017
LIRS 182055Z 09005KT 9999 SCT040 15/14 Q1017 RMK SCT VIS MIN 9999 WIND THR03 10006KT WIND THR21 10003KT BLU
LIRS 181955Z 11005KT 9999 FEW030 16/14 Q1017
LIRS 181955Z 11005KT 9999 FEW030 16/14 Q1017 RMK BKN SCT200 VIS MIN 9999 WIND THR03 12004KT WIND THR21 12004KT BLU